Time;durP1;ratioP1;P1;durP2;ratioP2;P2;SDS_P1;SDS_P2;PMS_P1;PMS_P2;Temp;Humidity;BMP_temperature;BMP_pressure;BME280_temperature;BME280_humidity;BME280_pressure;Samples;Min_cycle;Max_cycle;Signal;HPM_P1;HPM_P2
2023/08/04 00:00:31;;;;;;;114.85;7.55;;;;;;;;;;5046977;28;20037;-53
2023/08/04 00:02:57;;;;;;;91.40;6.28;;;;;;;;;;5048129;28;20561;-53
2023/08/04 00:05:23;;;;;;;101.88;7.00;;;;;;;;;;5048267;28;20020;-53
2023/08/04 00:07:48;;;;;;;83.20;5.53;;;;;;;;;;5050256;28;20009;-53
2023/08/04 00:10:13;;;;;;;70.28;5.25;;;;;;;;;;5049009;28;20040;-54
2023/08/04 00:12:38;;;;;;;141.10;9.53;;;;;;;;;;5050283;28;20028;-54
2023/08/04 00:15:05;;;;;;;65.10;4.78;;;;;;;;;;5049918;28;20729;-53
2023/08/04 00:17:31;;;;;;;139.43;8.80;;;;;;;;;;5046769;28;20041;-54
2023/08/04 00:19:56;;;;;;;83.32;6.05;;;;;;;;;;5048283;28;20036;-53
2023/08/04 00:22:21;;;;;;;67.85;5.10;;;;;;;;;;5048522;28;20048;-53
2023/08/04 00:24:46;;;;;;;103.40;6.77;;;;;;;;;;5049502;28;20012;-53
2023/08/04 00:27:12;;;;;;;73.35;5.32;;;;;;;;;;5049368;28;20279;-53
2023/08/04 00:29:37;;;;;;;135.80;9.52;;;;;;;;;;5047531;28;20090;-54
2023/08/04 00:32:02;;;;;;;87.93;6.03;;;;;;;;;;5047452;28;20033;-53
2023/08/04 00:34:27;;;;;;;138.45;9.52;;;;;;;;;;5048353;28;20259;-52
2023/08/04 00:36:53;;;;;;;84.00;5.83;;;;;;;;;;5048979;28;20029;-53
2023/08/04 00:39:18;;;;;;;106.47;7.20;;;;;;;;;;5049384;28;20273;-53
2023/08/04 00:41:43;;;;;;;81.20;5.70;;;;;;;;;;5029349;28;20381;-54
2023/08/04 00:44:09;;;;;;;76.93;5.28;;;;;;;;;;5049393;28;20549;-54
2023/08/04 00:46:35;;;;;;;137.18;9.25;;;;;;;;;;5046306;28;20037;-53
2023/08/04 00:49:00;;;;;;;85.93;5.72;;;;;;;;;;5047003;28;20024;-53
2023/08/04 00:51:26;;;;;;;107.95;7.35;;;;;;;;;;5048433;28;20039;-53
2023/08/04 00:53:51;;;;;;;109.72;6.95;;;;;;;;;;5047878;28;20556;-54
2023/08/04 00:56:17;;;;;;;79.25;5.68;;;;;;;;;;5047954;28;20044;-53
2023/08/04 00:58:42;;;;;;;85.05;5.72;;;;;;;;;;5046354;28;21971;-53
2023/08/04 01:01:08;;;;;;;98.20;6.33;;;;;;;;;;5049498;28;20032;-53
2023/08/04 01:03:34;;;;;;;143.82;10.02;;;;;;;;;;5046824;28;20500;-54
2023/08/04 01:05:59;;;;;;;67.43;4.78;;;;;;;;;;5047767;28;20388;-54
2023/08/04 01:08:29;;;;;;;81.27;5.63;;;;;;;;;;5046213;28;20396;-53
2023/08/04 01:11:03;;;;;;;80.80;5.78;;;;;;;;;;5048406;28;20670;-53
2023/08/04 01:13:29;;;;;;;134.13;9.13;;;;;;;;;;5047190;28;20176;-53
2023/08/04 01:15:56;;;;;;;77.32;5.78;;;;;;;;;;5045546;28;20032;-54
2023/08/04 01:18:23;;;;;;;72.60;5.32;;;;;;;;;;5048149;28;20029;-53
2023/08/04 01:20:49;;;;;;;95.95;6.60;;;;;;;;;;5044347;28;20523;-53
2023/08/04 01:23:14;;;;;;;98.03;6.60;;;;;;;;;;5049375;28;20401;-53
2023/08/04 01:25:41;;;;;;;152.40;10.32;;;;;;;;;;5045929;28;20139;-53
2023/08/04 01:28:09;;;;;;;84.30;5.75;;;;;;;;;;5049789;28;20710;-53
2023/08/04 01:30:34;;;;;;;125.57;9.20;;;;;;;;;;5044471;28;20120;-54
2023/08/04 01:33:00;;;;;;;75.32;5.70;;;;;;;;;;5047924;28;20025;-53
2023/08/04 01:35:25;;;;;;;84.88;5.97;;;;;;;;;;5046836;28;20025;-53
2023/08/04 01:37:51;;;;;;;75.63;5.57;;;;;;;;;;5048366;28;20034;-52
2023/08/04 01:40:16;;;;;;;69.07;5.17;;;;;;;;;;5047190;28;20261;-52
2023/08/04 01:42:41;;;;;;;138.30;9.40;;;;;;;;;;5047358;28;20310;-53
2023/08/04 01:45:07;;;;;;;76.28;5.43;;;;;;;;;;5049167;28;20151;-52
2023/08/04 01:47:32;;;;;;;143.07;9.55;;;;;;;;;;5044785;28;20044;-53
2023/08/04 01:49:57;;;;;;;81.30;5.55;;;;;;;;;;5047402;28;20442;-53
2023/08/04 01:52:23;;;;;;;104.68;14.35;;;;;;;;;;5048989;28;20494;-53
2023/08/04 01:54:48;;;;;;;112.45;7.05;;;;;;;;;;5046047;28;20017;-52
2023/08/04 01:57:13;;;;;;;80.18;5.55;;;;;;;;;;5047375;28;20032;-53
2023/08/04 01:59:39;;;;;;;119.30;7.35;;;;;;;;;;5031838;28;20106;-53
2023/08/04 02:02:04;;;;;;;85.10;6.00;;;;;;;;;;5047623;28;20045;-53
2023/08/04 02:04:29;;;;;;;91.03;6.78;;;;;;;;;;5046364;28;20795;-52
2023/08/04 02:06:54;;;;;;;74.60;5.25;;;;;;;;;;5048260;28;20114;-53
2023/08/04 02:09:21;;;;;;;95.83;6.23;;;;;;;;;;5048490;28;20028;-53
2023/08/04 02:11:46;;;;;;;124.75;8.90;;;;;;;;;;5046553;28;20512;-53
2023/08/04 02:14:11;;;;;;;55.53;4.17;;;;;;;;;;5049010;28;20025;-53
2023/08/04 02:16:36;;;;;;;150.03;10.13;;;;;;;;;;5046817;28;20315;-52
2023/08/04 02:19:03;;;;;;;72.47;5.30;;;;;;;;;;5050770;28;20378;-53
2023/08/04 02:21:28;;;;;;;71.13;5.28;;;;;;;;;;5051637;28;20032;-54
2023/08/04 02:23:53;;;;;;;81.68;5.53;;;;;;;;;;5051447;28;20697;-53
2023/08/04 02:26:18;;;;;;;80.70;5.57;;;;;;;;;;5051718;28;20118;-53
2023/08/04 02:28:44;;;;;;;133.23;9.55;;;;;;;;;;5050409;28;20464;-53
2023/08/04 02:31:09;;;;;;;93.97;6.40;;;;;;;;;;5051049;28;20055;-52
2023/08/04 02:33:34;;;;;;;143.13;9.87;;;;;;;;;;5050245;28;20263;-53
2023/08/04 02:36:00;;;;;;;76.35;5.07;;;;;;;;;;5050980;28;20270;-52
2023/08/04 02:38:25;;;;;;;106.00;6.90;;;;;;;;;;5052007;28;20106;-53
2023/08/04 02:40:51;;;;;;;89.57;6.13;;;;;;;;;;5049666;28;20454;-56
2023/08/04 02:43:16;;;;;;;80.38;5.72;;;;;;;;;;5052350;28;20548;-53
2023/08/04 02:45:50;;;;;;;180.43;11.67;;;;;;;;;;5047136;28;20624;-53
2023/08/04 02:48:15;;;;;;;60.58;4.70;;;;;;;;;;5051821;28;20024;-53
2023/08/04 02:50:40;;;;;;;139.13;9.57;;;;;;;;;;5050424;28;20029;-53
2023/08/04 02:53:05;;;;;;;95.13;6.50;;;;;;;;;;5053638;28;20615;-53
2023/08/04 02:55:31;;;;;;;71.67;5.13;;;;;;;;;;5048551;28;20041;-52
2023/08/04 02:57:56;;;;;;;81.72;5.82;;;;;;;;;;5050231;28;20275;-53
2023/08/04 03:00:22;;;;;;;81.68;6.03;;;;;;;;;;5051794;28;20075;-53
2023/08/04 03:02:47;;;;;;;158.50;10.40;;;;;;;;;;5032349;28;20457;-54
2023/08/04 03:05:12;;;;;;;79.10;5.77;;;;;;;;;;5050059;28;20074;-53
2023/08/04 03:07:38;;;;;;;142.00;9.98;;;;;;;;;;5050065;28;20255;-53
2023/08/04 03:10:03;;;;;;;73.22;5.32;;;;;;;;;;5051830;28;20572;-53
2023/08/04 03:12:29;;;;;;;72.78;5.22;;;;;;;;;;5051009;28;20036;-53
2023/08/04 03:14:54;;;;;;;103.80;7.03;;;;;;;;;;5049110;28;20135;-53
2023/08/04 03:17:19;;;;;;;81.95;6.28;;;;;;;;;;5049602;28;20037;-53
2023/08/04 03:19:44;;;;;;;133.87;8.60;;;;;;;;;;5051309;28;20119;-53
2023/08/04 03:22:10;;;;;;;83.73;6.37;;;;;;;;;;5033902;28;20839;-53
2023/08/04 03:24:35;;;;;;;118.17;8.73;;;;;;;;;;5048714;28;20632;-53
2023/08/04 03:27:00;;;;;;;87.05;6.25;;;;;;;;;;5049935;28;20721;-53
2023/08/04 03:29:25;;;;;;;82.13;6.17;;;;;;;;;;5050663;28;20013;-53
2023/08/04 03:31:50;;;;;;;109.50;7.43;;;;;;;;;;5048168;28;20283;-54
2023/08/04 03:34:16;;;;;;;75.80;5.97;;;;;;;;;;5049216;28;20555;-54
2023/08/04 03:36:41;;;;;;;139.00;10.13;;;;;;;;;;5050306;28;20667;-54
2023/08/04 03:39:06;;;;;;;65.38;5.07;;;;;;;;;;5051192;28;20271;-54
2023/08/04 03:41:31;;;;;;;75.77;5.67;;;;;;;;;;5050275;28;20135;-53
2023/08/04 03:43:57;;;;;;;96.03;6.40;;;;;;;;;;5048003;28;20263;-54
2023/08/04 03:46:22;;;;;;;77.13;5.88;;;;;;;;;;5050513;28;20283;-54
2023/08/04 03:48:47;;;;;;;133.87;8.90;;;;;;;;;;5048210;28;20506;-54
2023/08/04 03:51:13;;;;;;;66.47;6.00;;;;;;;;;;5051041;28;20740;-54
2023/08/04 03:53:38;;;;;;;135.30;9.73;;;;;;;;;;5050145;28;20328;-54
2023/08/04 03:56:03;;;;;;;80.97;6.22;;;;;;;;;;5033355;28;20043;-53
2023/08/04 03:58:29;;;;;;;70.13;5.55;;;;;;;;;;5050781;28;20540;-54
2023/08/04 04:00:54;;;;;;;92.93;6.63;;;;;;;;;;5049925;28;20252;-53
2023/08/04 04:03:19;;;;;;;97.78;6.80;;;;;;;;;;5049132;28;20293;-54
2023/08/04 04:05:44;;;;;;;169.63;11.48;;;;;;;;;;5046827;28;20415;-54
2023/08/04 04:08:10;;;;;;;79.27;5.73;;;;;;;;;;5050348;28;20047;-54
2023/08/04 04:10:35;;;;;;;99.63;6.40;;;;;;;;;;5049235;28;20295;-54
2023/08/04 04:13:01;;;;;;;75.55;5.75;;;;;;;;;;5048547;28;20270;-54
2023/08/04 04:15:26;;;;;;;80.40;5.82;;;;;;;;;;5049076;28;20508;-53
2023/08/04 04:17:52;;;;;;;153.65;10.00;;;;;;;;;;5049737;28;20271;-54
2023/08/04 04:20:17;;;;;;;86.60;6.07;;;;;;;;;;5049476;28;20580;-54
2023/08/04 04:22:42;;;;;;;136.65;9.27;;;;;;;;;;5048352;28;20290;-54
2023/08/04 04:25:07;;;;;;;94.40;7.03;;;;;;;;;;5049812;28;20224;-55
2023/08/04 04:27:33;;;;;;;66.55;5.63;;;;;;;;;;5050079;28;20282;-55
2023/08/04 04:29:58;;;;;;;75.10;5.67;;;;;;;;;;5049301;28;20514;-54
2023/08/04 04:32:23;;;;;;;104.97;7.53;;;;;;;;;;5049215;28;20780;-55
2023/08/04 04:34:49;;;;;;;139.38;10.05;;;;;;;;;;5047885;28;20314;-54
2023/08/04 04:37:14;;;;;;;78.55;5.70;;;;;;;;;;5048963;28;20032;-54
2023/08/04 04:39:40;;;;;;;141.63;9.68;;;;;;;;;;5047616;28;20052;-53
2023/08/04 04:42:05;;;;;;;71.27;5.67;;;;;;;;;;5048691;28;20047;-54
2023/08/04 04:44:30;;;;;;;93.70;6.72;;;;;;;;;;5048892;28;20672;-54
2023/08/04 04:46:56;;;;;;;104.20;6.68;;;;;;;;;;5045843;28;21746;-54
2023/08/04 04:49:21;;;;;;;86.03;6.27;;;;;;;;;;5049099;28;20019;-53
2023/08/04 04:51:46;;;;;;;146.18;10.23;;;;;;;;;;5047930;28;20309;-55
2023/08/04 04:54:11;;;;;;;92.68;6.75;;;;;;;;;;5047452;28;20307;-55
2023/08/04 04:56:37;;;;;;;91.93;5.97;;;;;;;;;;5049819;28;20071;-54
2023/08/04 04:59:03;;;;;;;77.13;5.47;;;;;;;;;;5050680;28;20378;-55
2023/08/04 05:01:28;;;;;;;102.03;6.95;;;;;;;;;;5049368;28;20477;-54
2023/08/04 05:03:53;;;;;;;127.00;9.43;;;;;;;;;;5047611;28;20059;-55
2023/08/04 05:06:19;;;;;;;91.03;6.80;;;;;;;;;;5047722;28;20048;-55
2023/08/04 05:08:44;;;;;;;132.03;9.10;;;;;;;;;;5047938;28;20299;-55
2023/08/04 05:11:09;;;;;;;83.38;6.15;;;;;;;;;;5046902;28;20681;-54
2023/08/04 05:13:34;;;;;;;80.72;6.07;;;;;;;;;;5049612;28;20116;-55
2023/08/04 05:16:00;;;;;;;73.88;5.43;;;;;;;;;;5048300;28;20274;-55
2023/08/04 05:18:25;;;;;;;72.43;5.63;;;;;;;;;;5048545;28;20017;-54
2023/08/04 05:20:50;;;;;;;149.40;10.37;;;;;;;;;;5048295;28;20044;-55
2023/08/04 05:23:15;;;;;;;103.07;7.32;;;;;;;;;;5048187;28;20459;-54
2023/08/04 05:25:41;;;;;;;117.82;8.27;;;;;;;;;;5048192;28;20040;-53
2023/08/04 05:28:19;;;;;;;78.23;6.17;;;;;;;;;;5049096;28;20021;-55
2023/08/04 05:30:44;;;;;;;110.88;8.43;;;;;;;;;;5047658;28;20337;-54
2023/08/04 05:33:09;;;;;;;100.07;7.30;;;;;;;;;;5047856;28;20128;-54
2023/08/04 05:35:37;;;;;;;78.93;5.72;;;;;;;;;;5048403;28;20432;-54
2023/08/04 05:38:02;;;;;;;72.65;6.35;;;;;;;;;;5047523;28;20270;-55
2023/08/04 05:40:28;;;;;;;88.25;6.82;;;;;;;;;;5049199;28;20148;-55
2023/08/04 05:42:53;;;;;;;151.17;10.47;;;;;;;;;;5047387;28;20059;-54
2023/08/04 05:45:18;;;;;;;81.40;6.03;;;;;;;;;;5048759;28;20275;-54
2023/08/04 05:47:44;;;;;;;119.87;8.50;;;;;;;;;;5044862;28;20264;-55
2023/08/04 05:50:10;;;;;;;92.28;6.75;;;;;;;;;;5048189;28;20787;-54
2023/08/04 05:52:35;;;;;;;64.85;5.65;;;;;;;;;;5048698;28;20187;-54
2023/08/04 05:55:00;;;;;;;91.25;6.70;;;;;;;;;;5047913;28;20028;-54
2023/08/04 05:57:25;;;;;;;74.55;5.60;;;;;;;;;;5047602;28;20033;-54
2023/08/04 05:59:51;;;;;;;126.80;8.50;;;;;;;;;;5048561;28;20478;-55
2023/08/04 06:02:17;;;;;;;97.80;6.80;;;;;;;;;;5048768;28;20648;-54
2023/08/04 06:04:44;;;;;;;91.95;6.75;;;;;;;;;;5030405;28;21010;-55
2023/08/04 06:07:09;;;;;;;69.97;5.40;;;;;;;;;;5032039;28;20180;-55
2023/08/04 06:09:35;;;;;;;79.53;6.00;;;;;;;;;;5033200;28;20082;-54
2023/08/04 06:12:00;;;;;;;102.75;7.03;;;;;;;;;;5028758;28;20275;-55
2023/08/04 06:14:25;;;;;;;62.90;4.97;;;;;;;;;;5032355;28;20025;-55
2023/08/04 06:16:50;;;;;;;156.13;10.67;;;;;;;;;;5030021;28;20195;-54
2023/08/04 06:19:16;;;;;;;62.33;4.90;;;;;;;;;;5029844;28;20355;-54
2023/08/04 06:21:41;;;;;;;74.55;5.57;;;;;;;;;;5032048;28;20037;-54
2023/08/04 06:24:06;;;;;;;83.50;6.07;;;;;;;;;;5030960;28;20479;-54
2023/08/04 06:26:31;;;;;;;49.37;4.33;;;;;;;;;;5031941;28;20268;-55
2023/08/04 06:28:56;;;;;;;128.05;9.35;;;;;;;;;;5031904;28;20247;-54
2023/08/04 06:31:22;;;;;;;85.20;6.40;;;;;;;;;;5032980;28;20407;-54
2023/08/04 06:33:47;;;;;;;126.10;9.23;;;;;;;;;;5031332;28;20248;-55
2023/08/04 06:36:12;;;;;;;85.63;6.13;;;;;;;;;;5031869;28;20260;-54
2023/08/04 06:38:37;;;;;;;82.90;6.37;;;;;;;;;;5032548;28;20025;-54
2023/08/04 06:41:03;;;;;;;58.63;5.00;;;;;;;;;;5030984;28;20276;-54
2023/08/04 06:43:28;;;;;;;70.45;5.43;;;;;;;;;;5032989;28;20013;-54
2023/08/04 06:45:53;;;;;;;128.50;8.87;;;;;;;;;;5029688;28;20402;-56
2023/08/04 06:48:18;;;;;;;66.27;5.80;;;;;;;;;;5032060;28;20261;-55
2023/08/04 06:50:44;;;;;;;81.83;6.07;;;;;;;;;;5030880;28;20350;-54
2023/08/04 06:53:10;;;;;;;84.73;6.53;;;;;;;;;;5030818;28;20259;-54
2023/08/04 06:55:35;;;;;;;138.73;99.53;;;;;;;;;;5032081;28;20753;-54
2023/08/04 06:58:00;;;;;;;211.13;139.23;;;;;;;;;;5031163;28;20143;-55
2023/08/04 07:00:25;;;;;;;191.83;124.87;;;;;;;;;;5031597;28;20360;-55
2023/08/04 07:02:50;;;;;;;102.77;8.77;;;;;;;;;;5027049;28;20112;-55
2023/08/04 07:05:16;;;;;;;64.93;10.30;;;;;;;;;;5036605;28;20039;-55
2023/08/04 07:07:42;;;;;;;54.47;4.97;;;;;;;;;;5040362;28;20014;-55
2023/08/04 07:10:07;;;;;;;90.15;39.03;;;;;;;;;;5038829;28;20019;-54
2023/08/04 07:12:33;;;;;;;247.15;222.75;;;;;;;;;;5026024;28;20031;-54
2023/08/04 07:14:58;;;;;;;197.80;95.10;;;;;;;;;;5037102;28;20029;-55
2023/08/04 07:17:24;;;;;;;279.35;251.52;;;;;;;;;;5038244;28;20872;-55
2023/08/04 07:19:49;;;;;;;247.70;189.73;;;;;;;;;;5037736;28;20021;-55
2023/08/04 07:22:14;;;;;;;180.30;130.30;;;;;;;;;;5038379;28;20382;-56
2023/08/04 07:24:39;;;;;;;233.13;208.07;;;;;;;;;;5038925;28;20518;-56
2023/08/04 07:27:05;;;;;;;167.93;145.77;;;;;;;;;;5035290;28;21785;-56
2023/08/04 07:29:33;;;;;;;167.50;149.18;;;;;;;;;;5039210;28;21165;-57
2023/08/04 07:31:58;;;;;;;258.63;202.00;;;;;;;;;;5037105;28;20396;-54
2023/08/04 07:34:23;;;;;;;184.63;115.47;;;;;;;;;;5037990;28;20597;-55
2023/08/04 07:36:49;;;;;;;174.73;144.87;;;;;;;;;;5022164;28;20029;-55
2023/08/04 07:39:14;;;;;;;285.57;218.43;;;;;;;;;;5037294;28;20025;-54
2023/08/04 07:41:40;;;;;;;297.75;245.43;;;;;;;;;;5038156;28;20094;-55
2023/08/04 07:44:05;;;;;;;145.20;89.33;;;;;;;;;;5035728;28;20025;-54
2023/08/04 07:46:30;;;;;;;113.68;95.35;;;;;;;;;;5037641;28;20653;-55
2023/08/04 07:48:55;;;;;;;169.85;99.32;;;;;;;;;;5036707;28;20048;-56
2023/08/04 07:51:21;;;;;;;224.55;199.95;;;;;;;;;;5038880;28;20123;-55
2023/08/04 07:53:46;;;;;;;288.80;190.88;;;;;;;;;;5037014;28;20028;-54
2023/08/04 07:56:12;;;;;;;242.30;213.52;;;;;;;;;;5036335;28;20029;-55
2023/08/04 07:58:37;;;;;;;219.93;196.30;;;;;;;;;;5039196;28;20016;-55
2023/08/04 08:01:05;;;;;;;207.98;165.18;;;;;;;;;;5036761;28;20051;-55
2023/08/04 08:03:31;;;;;;;199.75;174.57;;;;;;;;;;5038142;28;20907;-55
2023/08/04 08:05:57;;;;;;;165.35;121.07;;;;;;;;;;5035187;28;20278;-56
2023/08/04 08:08:22;;;;;;;104.15;83.50;;;;;;;;;;5038445;28;20028;-55
2023/08/04 08:10:47;;;;;;;144.97;101.43;;;;;;;;;;5037489;28;20037;-54
2023/08/04 08:13:12;;;;;;;268.43;240.17;;;;;;;;;;5036499;28;20520;-55
2023/08/04 08:15:37;;;;;;;151.53;128.37;;;;;;;;;;5037327;28;20268;-54
2023/08/04 08:18:03;;;;;;;142.27;65.87;;;;;;;;;;5033459;28;20028;-55
2023/08/04 08:20:28;;;;;;;266.33;220.77;;;;;;;;;;5037007;28;20065;-54
2023/08/04 08:22:54;;;;;;;302.47;196.43;;;;;;;;;;5035417;28;20544;-56
2023/08/04 08:25:19;;;;;;;91.95;47.70;;;;;;;;;;5036012;28;20260;-55
2023/08/04 08:27:44;;;;;;;151.10;127.57;;;;;;;;;;5037465;28;20471;-56
2023/08/04 08:30:11;;;;;;;140.63;123.90;;;;;;;;;;5036312;28;20351;-56
2023/08/04 08:32:36;;;;;;;196.02;138.10;;;;;;;;;;5035864;28;20045;-55
2023/08/04 08:35:01;;;;;;;160.37;104.00;;;;;;;;;;5037113;28;20163;-55
2023/08/04 08:37:26;;;;;;;113.60;92.50;;;;;;;;;;5038221;28;20290;-55
2023/08/04 08:39:52;;;;;;;165.90;121.40;;;;;;;;;;5036465;28;20267;-55
2023/08/04 08:42:17;;;;;;;117.70;97.87;;;;;;;;;;5038094;28;20033;-55
2023/08/04 08:44:42;;;;;;;110.37;80.23;;;;;;;;;;5037308;28;20025;-55
2023/08/04 08:47:07;;;;;;;196.87;121.87;;;;;;;;;;5036261;28;20290;-55
2023/08/04 08:49:37;;;;;;;211.40;191.30;;;;;;;;;;5038246;28;20378;-55
2023/08/04 08:52:06;;;;;;;238.65;173.32;;;;;;;;;;5036001;28;20874;-56
2023/08/04 08:54:32;;;;;;;197.05;162.35;;;;;;;;;;5038275;28;20021;-55
2023/08/04 08:56:58;;;;;;;221.25;167.93;;;;;;;;;;5034323;28;20040;-53
2023/08/04 08:59:23;;;;;;;308.55;276.55;;;;;;;;;;5037184;28;20025;-54
2023/08/04 09:01:48;;;;;;;221.88;198.68;;;;;;;;;;5036503;28;20584;-56
2023/08/04 09:04:14;;;;;;;263.57;204.47;;;;;;;;;;5035833;28;20108;-54
2023/08/04 09:06:39;;;;;;;318.80;258.95;;;;;;;;;;5036664;28;20264;-54
2023/08/04 09:09:05;;;;;;;254.33;214.03;;;;;;;;;;5035753;28;20021;-55
2023/08/04 09:11:31;;;;;;;226.77;196.95;;;;;;;;;;5037984;28;20770;-55
2023/08/04 09:13:57;;;;;;;258.33;213.80;;;;;;;;;;5034861;28;20086;-54
2023/08/04 09:16:36;;;;;;;244.10;195.68;;;;;;;;;;5037120;28;20036;-55
2023/08/04 09:19:05;;;;;;;224.35;134.40;;;;;;;;;;5035062;28;20364;-55
2023/08/04 09:21:31;;;;;;;292.65;259.23;;;;;;;;;;5025061;28;20585;-56
2023/08/04 09:23:56;;;;;;;335.20;274.55;;;;;;;;;;5034817;28;20028;-56
2023/08/04 09:26:21;;;;;;;232.30;189.73;;;;;;;;;;5036506;28;20025;-56
2023/08/04 09:29:03;;;;;;;227.13;202.82;;;;;;;;;;5035586;28;20112;-56
2023/08/04 09:31:34;;;;;;;215.93;181.38;;;;;;;;;;5036201;28;20120;-56
2023/08/04 09:33:59;;;;;;;316.47;262.03;;;;;;;;;;5034262;28;20025;-55
2023/08/04 09:36:25;;;;;;;180.13;138.90;;;;;;;;;;5034950;28;20090;-56
2023/08/04 09:38:50;;;;;;;258.00;201.33;;;;;;;;;;5036156;28;20259;-56
2023/08/04 09:41:15;;;;;;;286.55;257.58;;;;;;;;;;5034930;28;20830;-56
2023/08/04 09:43:44;;;;;;;270.30;240.98;;;;;;;;;;5036073;28;20148;-57
2023/08/04 09:46:09;;;;;;;299.58;233.95;;;;;;;;;;5034388;28;20025;-57
2023/08/04 09:48:35;;;;;;;153.00;129.25;;;;;;;;;;5037296;28;20047;-57
2023/08/04 09:51:10;;;;;;;250.60;222.77;;;;;;;;;;5034714;28;20032;-56
2023/08/04 09:53:36;;;;;;;111.28;57.20;;;;;;;;;;5036675;28;20029;-56
2023/08/04 09:56:02;;;;;;;281.05;206.25;;;;;;;;;;5033020;28;20120;-56
2023/08/04 09:58:27;;;;;;;187.82;137.88;;;;;;;;;;5035412;28;20700;-56
2023/08/04 10:00:53;;;;;;;153.27;128.40;;;;;;;;;;5035186;28;20044;-56
2023/08/04 10:03:18;;;;;;;294.38;263.55;;;;;;;;;;5033417;28;20294;-56
2023/08/04 10:05:44;;;;;;;254.95;191.98;;;;;;;;;;5033873;28;20402;-56
2023/08/04 10:08:10;;;;;;;335.15;294.38;;;;;;;;;;5034810;28;20009;-56
2023/08/04 10:10:35;;;;;;;94.97;71.22;;;;;;;;;;5035161;28;20029;-57
2023/08/04 10:13:01;;;;;;;231.52;146.50;;;;;;;;;;5034283;28;20063;-56
2023/08/04 10:15:26;;;;;;;78.57;31.92;;;;;;;;;;5035473;28;20029;-56
2023/08/04 10:17:51;;;;;;;308.75;280.02;;;;;;;;;;5009393;28;20032;-56
2023/08/04 10:20:17;;;;;;;280.20;247.33;;;;;;;;;;5033499;28;20470;-56
2023/08/04 10:22:43;;;;;;;293.95;263.80;;;;;;;;;;5036676;28;20771;-56
2023/08/04 10:25:13;;;;;;;177.45;104.80;;;;;;;;;;5034347;28;20016;-57
2023/08/04 10:27:45;;;;;;;203.15;175.10;;;;;;;;;;5035212;28;20033;-56
2023/08/04 10:30:11;;;;;;;351.23;287.42;;;;;;;;;;5017536;28;20014;-56
2023/08/04 10:32:37;;;;;;;272.58;141.85;;;;;;;;;;5036495;28;20032;-56
2023/08/04 10:35:06;;;;;;;155.85;71.80;;;;;;;;;;5034897;28;20052;-56
2023/08/04 10:37:43;;;;;;;107.35;65.07;;;;;;;;;;5036255;28;20124;-57
2023/08/04 10:40:10;;;;;;;182.70;109.05;;;;;;;;;;5037819;28;20547;-55
2023/08/04 10:42:55;;;;;;;211.15;186.75;;;;;;;;;;5039857;28;20059;-56
2023/08/04 10:45:20;;;;;;;223.10;171.55;;;;;;;;;;5037757;28;20575;-56
2023/08/04 10:47:53;;;;;;;110.67;51.83;;;;;;;;;;5039678;28;20017;-56
2023/08/04 10:50:18;;;;;;;192.15;119.88;;;;;;;;;;5037002;28;20811;-56
2023/08/04 10:52:44;;;;;;;132.18;87.45;;;;;;;;;;5039544;28;20033;-56
2023/08/04 10:55:10;;;;;;;204.60;141.27;;;;;;;;;;5037047;28;20966;-55
2023/08/04 10:57:36;;;;;;;201.55;180.90;;;;;;;;;;5038376;28;20290;-55
2023/08/04 11:00:03;;;;;;;210.93;170.82;;;;;;;;;;5025432;28;20224;-56
2023/08/04 11:02:28;;;;;;;190.18;153.15;;;;;;;;;;5037992;28;20033;-56
2023/08/04 11:04:54;;;;;;;304.33;271.50;;;;;;;;;;5037905;28;20024;-56
2023/08/04 11:07:20;;;;;;;224.98;200.55;;;;;;;;;;5037484;28;20968;-57
2023/08/04 11:09:46;;;;;;;161.80;128.45;;;;;;;;;;5039881;28;20024;-56
2023/08/04 11:12:12;;;;;;;303.02;270.15;;;;;;;;;;5037435;28;20610;-56
2023/08/04 11:14:38;;;;;;;127.57;96.13;;;;;;;;;;5038153;28;20047;-56
2023/08/04 11:17:10;;;;;;;311.08;255.85;;;;;;;;;;5036847;28;20166;-56
2023/08/04 11:19:35;;;;;;;224.75;203.38;;;;;;;;;;5039855;28;20021;-56
2023/08/04 11:22:07;;;;;;;205.07;183.20;;;;;;;;;;5035316;28;20052;-56
2023/08/04 11:24:32;;;;;;;252.98;224.73;;;;;;;;;;5039171;28;20028;-56
2023/08/04 11:26:58;;;;;;;263.37;236.77;;;;;;;;;;5038455;28;20041;-55
2023/08/04 11:29:24;;;;;;;297.05;266.38;;;;;;;;;;5038779;28;20304;-56
2023/08/04 11:31:50;;;;;;;229.23;197.50;;;;;;;;;;5038181;28;20055;-57
2023/08/04 11:34:16;;;;;;;265.73;218.45;;;;;;;;;;5037454;28;20074;-55
2023/08/04 11:36:41;;;;;;;245.95;180.15;;;;;;;;;;5038186;28;20029;-57
2023/08/04 11:39:06;;;;;;;256.23;225.43;;;;;;;;;;5037416;28;20132;-56
2023/08/04 11:41:32;;;;;;;286.03;254.77;;;;;;;;;;5037433;28;20049;-56
2023/08/04 11:43:59;;;;;;;281.48;252.63;;;;;;;;;;5037756;28;20256;-56
2023/08/04 11:46:24;;;;;;;265.58;237.48;;;;;;;;;;5034461;28;20033;-56
2023/08/04 11:48:49;;;;;;;133.60;103.82;;;;;;;;;;5038996;28;20028;-57
2023/08/04 11:51:15;;;;;;;245.53;176.20;;;;;;;;;;5034654;28;20116;-55
2023/08/04 11:53:43;;;;;;;214.80;193.35;;;;;;;;;;5038435;28;20056;-56
2023/08/04 11:56:08;;;;;;;192.75;143.50;;;;;;;;;;5035579;28;20044;-56
2023/08/04 11:58:34;;;;;;;129.40;90.30;;;;;;;;;;5038420;28;20549;-56
2023/08/04 12:00:59;;;;;;;194.80;143.20;;;;;;;;;;5037121;28;20352;-55
2023/08/04 12:03:25;;;;;;;217.85;195.38;;;;;;;;;;5036267;28;20027;-55
2023/08/04 12:05:51;;;;;;;297.77;252.70;;;;;;;;;;5036965;28;20029;-55
2023/08/04 12:08:16;;;;;;;299.20;231.13;;;;;;;;;;5036008;28;20402;-56
2023/08/04 12:10:41;;;;;;;167.00;142.23;;;;;;;;;;5037080;28;20026;-56
2023/08/04 12:13:07;;;;;;;317.48;259.42;;;;;;;;;;5022220;28;20025;-56
2023/08/04 12:15:50;;;;;;;139.43;104.22;;;;;;;;;;5038176;28;20045;-55
2023/08/04 12:18:22;;;;;;;247.93;167.85;;;;;;;;;;5036986;28;20025;-56
2023/08/04 12:20:47;;;;;;;267.13;239.20;;;;;;;;;;5037658;28;20045;-56
2023/08/04 12:23:13;;;;;;;276.97;210.70;;;;;;;;;;5036662;28;20406;-56
2023/08/04 12:25:38;;;;;;;235.23;210.57;;;;;;;;;;5037736;28;20272;-56
2023/08/04 12:28:04;;;;;;;116.13;89.60;;;;;;;;;;5035890;28;20032;-56
2023/08/04 12:30:29;;;;;;;290.63;261.10;;;;;;;;;;5037966;28;20029;-56
2023/08/04 12:32:54;;;;;;;184.90;124.70;;;;;;;;;;5038303;28;20036;-56
2023/08/04 12:35:20;;;;;;;245.87;180.53;;;;;;;;;;5035572;28;20402;-55
2023/08/04 12:37:45;;;;;;;190.20;161.13;;;;;;;;;;5036955;28;20352;-56
2023/08/04 12:40:10;;;;;;;235.83;179.30;;;;;;;;;;5034639;28;20019;-56
2023/08/04 12:42:35;;;;;;;245.55;220.48;;;;;;;;;;5037527;28;20020;-56
2023/08/04 12:45:01;;;;;;;261.60;234.90;;;;;;;;;;5037509;28;20063;-56
2023/08/04 12:47:26;;;;;;;173.77;150.07;;;;;;;;;;5035835;28;20451;-56
2023/08/04 12:49:52;;;;;;;209.25;187.00;;;;;;;;;;5037848;28;20021;-56
2023/08/04 12:52:17;;;;;;;223.80;152.60;;;;;;;;;;5035268;28;20399;-56
2023/08/04 12:54:42;;;;;;;244.90;217.88;;;;;;;;;;5036611;28;20387;-56
2023/08/04 12:57:09;;;;;;;231.80;198.10;;;;;;;;;;5033822;28;20634;-56
2023/08/04 12:59:34;;;;;;;220.27;186.23;;;;;;;;;;5037143;28;20491;-56
2023/08/04 13:01:59;;;;;;;130.55;102.57;;;;;;;;;;5034739;28;20048;-56
2023/08/04 13:04:24;;;;;;;200.47;179.83;;;;;;;;;;5035383;28;21415;-57
2023/08/04 13:06:50;;;;;;;184.95;162.48;;;;;;;;;;5037260;28;20572;-56
2023/08/04 13:09:17;;;;;;;332.13;283.07;;;;;;;;;;5036001;28;20108;-57
2023/08/04 13:11:42;;;;;;;212.00;161.32;;;;;;;;;;5035535;28;20487;-56
2023/08/04 13:14:07;;;;;;;317.57;235.03;;;;;;;;;;5035923;28;20032;-57
2023/08/04 13:16:33;;;;;;;262.37;147.53;;;;;;;;;;5035863;28;20418;-57
2023/08/04 13:18:58;;;;;;;293.87;206.23;;;;;;;;;;5036809;28;20290;-55
2023/08/04 13:21:23;;;;;;;410.67;58.07;;;;;;;;;;5034753;28;20851;-55
2023/08/04 13:23:48;;;;;;;198.18;127.40;;;;;;;;;;5036052;28;20295;-55
2023/08/04 13:26:14;;;;;;;230.10;188.83;;;;;;;;;;5035900;28;20159;-55
2023/08/04 13:28:39;;;;;;;284.63;81.32;;;;;;;;;;5036972;28;20354;-56
2023/08/04 13:31:05;;;;;;;221.57;200.07;;;;;;;;;;5023296;28;20036;-56
2023/08/04 13:33:31;;;;;;;103.75;68.20;;;;;;;;;;5034460;28;20025;-56
2023/08/04 13:35:56;;;;;;;263.85;187.43;;;;;;;;;;5035041;28;20449;-56
2023/08/04 13:38:21;;;;;;;304.90;262.33;;;;;;;;;;5035188;28;20087;-56
2023/08/04 13:40:46;;;;;;;157.03;119.50;;;;;;;;;;5035443;28;20298;-56
2023/08/04 13:43:13;;;;;;;220.97;157.60;;;;;;;;;;5034315;28;20294;-56
2023/08/04 13:45:38;;;;;;;153.57;110.53;;;;;;;;;;5035448;28;20266;-57
2023/08/04 13:48:03;;;;;;;193.80;159.23;;;;;;;;;;5036821;28;20021;-56
2023/08/04 13:50:28;;;;;;;195.73;128.03;;;;;;;;;;5033357;28;20259;-56
2023/08/04 13:52:54;;;;;;;252.83;204.20;;;;;;;;;;5034649;28;21029;-56
2023/08/04 13:55:19;;;;;;;259.08;209.43;;;;;;;;;;5033996;28;20024;-56
2023/08/04 13:57:44;;;;;;;302.67;259.10;;;;;;;;;;5036279;28;20098;-56
2023/08/04 14:00:10;;;;;;;153.33;108.63;;;;;;;;;;5033301;28;20463;-56